LFMD/CEQ METAR and TAF weather

Enter ICAO airport designator
Station Type Date Time Source
LFMD METAR 2019/08/24 18:00 UTC NOAA

LFMD 241800Z AUTO 00000KT CAVOK 27/18 Q1017 BECMG 33010KT


Station Type Date Time Source
LFMD Decoded METAR 2019/08/24 18:00 UTC NOAA

Station name not available
Aug 24, 2019 - 02:00 PM EDT / 2019.08.24 1800 UTC
Wind: Calm:0
Visibility: greater than 7 mile(s):0
Temperature: 80 F (27 C)
Dew Point: 64 F (18 C)
Relative Humidity: 57%
Pressure (altimeter): 30.03 in. Hg (1017 hPa)
ob: LFMD 241800Z AUTO 00000KT CAVOK 27/18 Q1017 BECMG 33010KT
cycle: 18

Station Type Date Time Source
LFMD TAF 2019/08/24 15:21 UTC NOAA

TAF LFMD 241400Z 2415/2515 16007KT CAVOK
TEMPO 2415/2417 FEW050CB
BECMG 2419/2421 33010KT
TEMPO 2423/2504 BKN066
BECMG 2511/2513 18010KT

Example: see airport list